Skopje, Macedonia
Current Conditions -  °F | °C
As of 1:00 AM on Saturday 25 Oct 2014 (Local Time) from LWSK Reporting Station
Moderate Rain Moderate Rain  
Wind Chill: 46°   Ceiling: 4600
Heat Index: 46°   Visibility: 6mi
Dew Point: 43°   Wind: 0mph
Humidity: 87%   Direction: NA
Pressure: 29.91"   Gusts: NA
Location:  42°N, 21.47°E
Report Text: LWSK 242300Z 00000KT 9999 RA SCT030 OVC046 08/06 Q1013 NOSIG
Loading
Personal Weather Stations






























Interactive Weather Map
Tropical Storm Tracking
New forecast layout! Learn more

10-Day Weather Forecast

Advertisements
Track Severe Weather on mobile